This is the latest recevied weather packets stored in our database for station/object MB7UKB-10. If no packets are shown the sender has not sent any weather packets the latest 10 day(s).
| Time | Temp. | Humidity | Pressure | Rain* | Wind** | Luminosity | Snow |
|---|---|---|---|---|---|---|---|
| 1777745544 | 14.44° C | 84% | 1011.5 hPa | 0 mm | - | - | - |
| 1777743743 | 14.44° C | 83% | 1011.6 hPa | 0.25 mm | - | - | - |
| 1777741943 | 14.44° C | 85% | 1011.8 hPa | 0.51 mm | - | - | - |
| 1777740144 | 14.44° C | 85% | 1012.4 hPa | 1.27 mm | - | - | - |
| 1777738343 | 15° C | 82% | 1012.8 hPa | 1.27 mm | - | - | - |
| 1777736544 | 20° C | 53% | 1012.7 hPa | 0 mm | - | - | - |
| 1777734744 | 21.11° C | 46% | 1012.9 hPa | 0 mm | - | - | - |
| 1777732944 | 21.11° C | 45% | 1013.1 hPa | 0 mm | - | - | - |
| 1777731144 | 22.78° C | 40% | 1013.6 hPa | 0 mm | - | - | - |
| 1777729345 | 22.22° C | 42% | 1014.2 hPa | 0 mm | - | - | - |
| 1777727544 | 21.67° C | 43% | 1014.5 hPa | 0 mm | - | - | - |
| 1777725744 | 21.67° C | 44% | 1015 hPa | 0 mm | - | - | - |
| 1777723943 | 21.67° C | 42% | 1015.5 hPa | 0 mm | - | - | - |
| 1777722143 | 20.56° C | 42% | 1016.1 hPa | 0 mm | - | - | - |
| 1777720344 | 20.56° C | 45% | 1016.4 hPa | 0 mm | - | - | - |
| 1777718544 | 18.33° C | 52% | 1016.8 hPa | 0 mm | - | - | - |
| 1777716744 | 18.33° C | 53% | 1017.3 hPa | 0 mm | - | - | - |
| 1777714944 | 16.67° C | 62% | 1017.4 hPa | 0 mm | - | - | - |
| 1777713144 | 15.56° C | 69% | 1017.8 hPa | 0 mm | - | - | - |
| 1777711344 | 13.33° C | 75% | 1018.3 hPa | 0 mm | - | - | - |
| 1777707744 | 12.22° C | 82% | 1018.5 hPa | 0 mm | - | - | - |
| 1777705943 | 10.56° C | 89% | 1018.8 hPa | 0 mm | - | - | - |
| 1777702344 | 9.44° C | 93% | 1018.6 hPa | 0 mm | - | - | - |
| 1777700544 | 9.44° C | 94% | 1018.5 hPa | 0 mm | - | - | - |
| 1777698744 | 8.89° C | 95% | 1018.4 hPa | 0 mm | - | - | - |
* Rain latest hour (hover to see other rain measurements)
** Current wind speed in m/s (hover to see current wind gust speed)